createdAt,value
2017-08-03T00:01:24.946Z,28.10
2017-08-03T00:03:53.239Z,28.20
2017-08-03T00:06:22.282Z,28.20
2017-08-03T00:08:50.548Z,28.20
2017-08-03T00:11:18.831Z,28.20
2017-08-03T00:13:47.849Z,28.30
2017-08-03T00:16:16.146Z,28.30
2017-08-03T00:18:44.398Z,28.30
2017-08-03T00:21:12.661Z,28.30
2017-08-03T00:23:40.975Z,28.30
2017-08-03T00:26:09.263Z,28.30
2017-08-03T00:28:37.542Z,28.40
2017-08-03T00:31:05.833Z,28.40
2017-08-03T00:33:34.886Z,28.40
2017-08-03T00:36:03.200Z,28.40
2017-08-03T00:38:31.503Z,28.40
2017-08-03T00:40:59.758Z,28.50
2017-08-03T00:43:28.044Z,28.50
2017-08-03T00:45:57.118Z,28.50
2017-08-03T00:48:25.368Z,28.50
2017-08-03T00:50:53.612Z,28.50
2017-08-03T00:53:21.874Z,28.60
2017-08-03T00:55:50.164Z,28.60
2017-08-03T00:58:19.216Z,28.60
2017-08-03T01:00:47.505Z,28.60
2017-08-03T01:03:16.525Z,28.60
2017-08-03T01:05:44.802Z,28.60
2017-08-03T01:08:13.072Z,28.60
2017-08-03T01:10:41.313Z,28.60
2017-08-03T01:13:09.560Z,28.60
2017-08-03T01:15:37.820Z,28.60
2017-08-03T01:18:06.072Z,28.60
2017-08-03T01:20:34.321Z,28.70
2017-08-03T01:23:02.580Z,28.70
2017-08-03T01:25:30.832Z,28.70
2017-08-03T01:27:59.080Z,28.60
2017-08-03T01:30:28.155Z,28.70
2017-08-03T01:32:57.168Z,28.70
2017-08-03T01:35:25.418Z,28.70
2017-08-03T01:37:53.714Z,28.70
2017-08-03T01:40:21.979Z,28.70
2017-08-03T01:42:52.153Z,28.70
2017-08-03T01:45:20.429Z,28.70
2017-08-03T01:47:48.710Z,28.70
2017-08-03T01:50:16.994Z,28.70
2017-08-03T01:52:46.029Z,28.70
2017-08-03T01:55:14.309Z,28.70
2017-08-03T01:57:42.556Z,28.70
2017-08-03T02:00:10.873Z,28.70
2017-08-03T02:02:39.124Z,28.70
2017-08-03T02:05:07.380Z,28.70
2017-08-03T02:07:36.437Z,28.70
2017-08-03T02:10:04.474Z,28.70
2017-08-03T02:12:32.754Z,28.70
2017-08-03T02:15:01.057Z,28.70
2017-08-03T02:17:29.349Z,28.70
2017-08-03T02:19:57.601Z,28.70
2017-08-03T02:22:25.904Z,28.80
2017-08-03T02:24:54.955Z,28.70
2017-08-03T02:27:23.204Z,28.70
2017-08-03T02:29:52.194Z,28.80
2017-08-03T02:32:20.475Z,28.70
2017-08-03T02:34:49.488Z,28.70
2017-08-03T02:37:17.812Z,28.70
2017-08-03T02:39:46.868Z,28.80
2017-08-03T02:42:15.125Z,28.70
2017-08-03T02:44:43.414Z,28.80
2017-08-03T02:47:12.429Z,28.70
2017-08-03T02:49:40.678Z,28.80
2017-08-03T02:52:08.972Z,28.80
2017-08-03T02:54:37.229Z,28.80
2017-08-03T02:57:05.520Z,28.80
2017-08-03T02:59:33.825Z,28.80
2017-08-03T03:02:02.080Z,28.80
2017-08-03T03:04:30.317Z,28.80
2017-08-03T03:06:59.381Z,28.80
2017-08-03T03:09:27.635Z,28.80
2017-08-03T03:11:55.986Z,28.80
2017-08-03T03:14:24.290Z,28.80
2017-08-03T03:16:52.541Z,28.80
2017-08-03T03:19:21.587Z,28.80
2017-08-03T03:21:49.859Z,28.80
2017-08-03T03:24:18.143Z,28.80
2017-08-03T03:26:46.388Z,28.80
2017-08-03T03:29:15.420Z,28.80
2017-08-03T03:31:43.664Z,28.80
2017-08-03T03:34:11.917Z,28.80
2017-08-03T03:36:40.172Z,28.80
2017-08-03T03:39:08.457Z,28.80
2017-08-03T03:41:36.700Z,28.80
2017-08-03T03:44:05.002Z,28.80
2017-08-03T03:46:33.277Z,28.80
2017-08-03T03:49:02.293Z,28.90
2017-08-03T03:51:30.580Z,28.80
2017-08-03T03:53:58.820Z,28.90
2017-08-03T03:56:27.107Z,28.80
2017-08-03T03:58:55.382Z,28.80
2017-08-03T04:01:23.664Z,28.80
2017-08-03T04:03:52.749Z,28.90
2017-08-03T04:06:21.784Z,28.80
2017-08-03T04:08:50.032Z,28.80
2017-08-03T04:11:18.286Z,28.90
2017-08-03T04:13:46.585Z,28.90
2017-08-03T04:16:14.868Z,28.90
2017-08-03T04:18:43.116Z,28.90
2017-08-03T04:21:12.144Z,28.90
2017-08-03T04:23:40.393Z,28.90
2017-08-03T04:26:08.390Z,28.90
2017-08-03T04:28:36.657Z,28.90
2017-08-03T04:31:04.908Z,28.90
2017-08-03T04:33:33.165Z,28.90
2017-08-03T04:36:01.468Z,28.90
2017-08-03T04:38:29.721Z,28.90
2017-08-03T04:40:57.970Z,28.90
2017-08-03T04:43:27.044Z,28.90
2017-08-03T04:45:56.115Z,28.90
2017-08-03T04:48:25.128Z,28.90
2017-08-03T04:50:53.402Z,28.90
2017-08-03T04:53:21.644Z,28.90
2017-08-03T04:55:49.919Z,28.90
2017-08-03T04:58:18.223Z,28.90
2017-08-03T05:00:47.022Z,28.90
2017-08-03T05:03:15.276Z,28.90
2017-08-03T05:05:44.342Z,28.90
2017-08-03T05:08:13.386Z,29.00
2017-08-03T05:10:41.641Z,28.90
2017-08-03T05:13:09.963Z,28.90
2017-08-03T05:15:38.213Z,28.80
2017-08-03T05:18:07.283Z,27.70
2017-08-03T05:20:36.320Z,27.20
2017-08-03T05:23:04.569Z,27.20
2017-08-03T05:25:32.850Z,26.70
2017-08-03T05:28:01.159Z,26.30
2017-08-03T05:30:29.447Z,26.00
2017-08-03T05:32:57.703Z,25.70
2017-08-03T05:35:26.010Z,25.50
2017-08-03T05:37:55.075Z,25.20
2017-08-03T05:40:23.358Z,25.20
2017-08-03T05:42:52.400Z,25.20
2017-08-03T05:45:20.691Z,25.20
2017-08-03T05:47:49.763Z,25.00
2017-08-03T05:50:18.082Z,25.00
2017-08-03T05:52:46.333Z,25.10
2017-08-03T05:55:14.434Z,25.40
2017-08-03T05:57:42.721Z,25.70
2017-08-03T06:00:11.727Z,26.30
2017-08-03T06:02:40.002Z,26.30
2017-08-03T06:05:08.306Z,26.60
2017-08-03T06:07:37.358Z,26.90
2017-08-03T06:10:05.411Z,26.90
2017-08-03T06:12:33.668Z,27.10
2017-08-03T06:15:02.605Z,27.20
2017-08-03T06:17:30.894Z,27.30
2017-08-03T06:19:59.189Z,27.40
2017-08-03T06:22:27.482Z,27.40
2017-08-03T06:24:55.761Z,27.50
2017-08-03T06:27:24.054Z,27.50
2017-08-03T06:29:52.301Z,27.60
2017-08-03T06:32:20.360Z,27.60
2017-08-03T06:34:48.622Z,27.70
2017-08-03T06:37:16.872Z,27.70
2017-08-03T06:39:45.164Z,27.80
2017-08-03T06:42:13.437Z,27.80
2017-08-03T06:44:42.278Z,27.90
2017-08-03T06:47:10.524Z,27.90
2017-08-03T06:49:38.819Z,27.90
2017-08-03T06:52:07.833Z,28.00
2017-08-03T06:54:36.122Z,28.00
2017-08-03T06:57:04.389Z,28.00
2017-08-03T06:59:32.692Z,28.00
2017-08-03T07:02:00.989Z,28.10
2017-08-03T07:04:29.265Z,28.10
2017-08-03T07:06:57.550Z,28.10
2017-08-03T07:09:25.797Z,28.10
2017-08-03T07:11:54.064Z,28.10
2017-08-03T07:14:22.311Z,28.20
2017-08-03T07:16:50.600Z,28.10
2017-08-03T07:19:19.637Z,28.20
2017-08-03T07:21:47.914Z,28.20
2017-08-03T07:24:16.196Z,28.20
2017-08-03T07:26:45.286Z,28.20
2017-08-03T07:29:14.347Z,28.20
2017-08-03T07:31:43.406Z,28.20
2017-08-03T07:34:12.483Z,28.20
2017-08-03T07:36:40.763Z,28.30
2017-08-03T07:39:09.810Z,28.30
2017-08-03T07:41:38.072Z,28.30
2017-08-03T07:44:06.367Z,28.30
2017-08-03T07:46:35.419Z,28.30
2017-08-03T07:49:03.739Z,28.30
2017-08-03T07:51:32.020Z,28.30
2017-08-03T07:54:00.302Z,28.30
2017-08-03T07:56:28.569Z,28.40
2017-08-03T07:58:56.849Z,28.30
2017-08-03T08:01:25.882Z,28.40
2017-08-03T08:03:54.241Z,28.40
2017-08-03T08:06:22.527Z,28.40
2017-08-03T08:08:50.786Z,28.40
2017-08-03T08:11:19.049Z,28.40
2017-08-03T08:13:47.305Z,28.40
2017-08-03T08:16:15.562Z,28.40
2017-08-03T08:18:43.883Z,28.40
2017-08-03T08:21:12.153Z,28.40
2017-08-03T08:23:40.401Z,28.40
2017-08-03T08:26:08.704Z,28.40
2017-08-03T08:28:36.982Z,28.50
2017-08-03T08:31:06.001Z,28.40
2017-08-03T08:33:34.580Z,28.50
2017-08-03T08:36:02.829Z,28.50
2017-08-03T08:38:31.110Z,28.50
2017-08-03T08:40:59.393Z,28.50
2017-08-03T08:43:27.641Z,28.50
2017-08-03T08:45:55.886Z,28.50
2017-08-03T08:48:24.177Z,28.50
2017-08-03T08:50:52.475Z,28.50
2017-08-03T08:53:20.724Z,28.50
2017-08-03T08:55:49.030Z,28.50
2017-08-03T08:58:17.279Z,28.50
2017-08-03T09:00:45.550Z,28.50
2017-08-03T09:03:13.851Z,28.50
2017-08-03T09:05:42.925Z,28.50
2017-08-03T09:08:12.008Z,28.50
2017-08-03T09:10:41.063Z,28.60
2017-08-03T09:13:09.301Z,28.50
2017-08-03T09:15:37.561Z,28.50
2017-08-03T09:18:05.877Z,28.60
2017-08-03T09:20:34.922Z,28.50
2017-08-03T09:23:03.165Z,28.50
2017-08-03T09:25:31.428Z,28.60
2017-08-03T09:27:59.682Z,28.60
2017-08-03T09:30:27.932Z,28.60
2017-08-03T09:32:56.576Z,28.60
2017-08-03T09:35:24.856Z,28.60
2017-08-03T09:37:53.138Z,28.60
2017-08-03T09:40:21.446Z,28.60
2017-08-03T09:42:49.688Z,28.60
2017-08-03T09:45:18.738Z,28.60
2017-08-03T09:47:47.038Z,28.60
2017-08-03T09:50:15.325Z,28.60
2017-08-03T09:52:43.619Z,28.60
2017-08-03T09:55:11.918Z,28.60
2017-08-03T09:57:40.179Z,28.60
2017-08-03T10:00:08.715Z,28.60
2017-08-03T10:02:37.047Z,28.60
2017-08-03T10:05:05.326Z,28.60
2017-08-03T10:07:33.568Z,28.60
2017-08-03T10:10:01.840Z,28.70
2017-08-03T10:12:30.121Z,28.60
2017-08-03T10:14:58.407Z,28.70
2017-08-03T10:17:26.670Z,28.60
2017-08-03T10:19:54.925Z,28.70
2017-08-03T10:22:23.175Z,28.70
2017-08-03T10:24:52.224Z,28.70
2017-08-03T10:27:20.473Z,28.70
2017-08-03T10:29:48.721Z,28.70
2017-08-03T10:32:17.062Z,28.70
2017-08-03T10:34:45.326Z,28.70
2017-08-03T10:37:13.668Z,28.70
2017-08-03T10:39:41.965Z,28.70
2017-08-03T10:42:10.209Z,28.70
2017-08-03T10:44:38.495Z,28.80
2017-08-03T10:47:06.764Z,28.80
2017-08-03T10:49:35.017Z,28.80
2017-08-03T10:52:03.303Z,28.80
2017-08-03T10:54:32.367Z,28.80
2017-08-03T10:57:00.654Z,28.80
2017-08-03T10:59:29.746Z,28.80
2017-08-03T11:01:58.012Z,28.80
2017-08-03T11:04:26.287Z,28.80
2017-08-03T11:06:54.583Z,28.80
2017-08-03T11:09:22.863Z,28.80
2017-08-03T11:11:51.877Z,28.80
2017-08-03T11:14:19.936Z,28.80
2017-08-03T11:16:48.213Z,28.80
2017-08-03T11:19:16.500Z,28.90
2017-08-03T11:21:44.793Z,28.90
2017-08-03T11:24:13.105Z,28.90
2017-08-03T11:26:41.353Z,28.90
2017-08-03T11:29:09.633Z,28.90
2017-08-03T11:31:38.266Z,28.90
2017-08-03T11:34:06.514Z,28.90
2017-08-03T11:36:34.761Z,28.90
2017-08-03T11:39:03.063Z,28.90
2017-08-03T11:41:31.346Z,28.90
2017-08-03T11:43:59.639Z,28.90
2017-08-03T11:46:27.940Z,28.90
2017-08-03T11:48:56.305Z,28.90
2017-08-03T11:51:24.892Z,28.90
2017-08-03T11:53:53.172Z,28.90
2017-08-03T11:56:21.409Z,29.00
2017-08-03T11:58:49.687Z,28.90
2017-08-03T12:01:17.959Z,28.90
2017-08-03T12:03:46.964Z,29.00
2017-08-03T12:06:15.247Z,28.90
2017-08-03T12:08:43.549Z,28.90
2017-08-03T12:11:12.616Z,29.00
2017-08-03T12:13:40.857Z,29.00
2017-08-03T12:16:09.166Z,29.00
2017-08-03T12:18:37.452Z,29.00
2017-08-03T12:21:05.751Z,29.00
2017-08-03T12:23:34.058Z,29.00
2017-08-03T12:26:02.348Z,29.00
2017-08-03T12:28:30.607Z,29.00
2017-08-03T12:30:58.912Z,29.00
2017-08-03T12:33:27.920Z,29.00
2017-08-03T12:35:56.202Z,29.00
2017-08-03T12:38:24.481Z,29.00
2017-08-03T12:40:52.771Z,29.00
2017-08-03T12:43:21.819Z,29.10
2017-08-03T12:45:50.089Z,29.00
2017-08-03T12:48:18.375Z,29.00
2017-08-03T12:50:47.208Z,29.10
2017-08-03T12:53:15.477Z,29.00
2017-08-03T12:55:43.738Z,29.10
2017-08-03T12:58:12.028Z,29.10
2017-08-03T13:00:41.111Z,29.10
2017-08-03T13:03:10.148Z,29.10
2017-08-03T13:05:38.397Z,29.10
2017-08-03T13:08:06.665Z,29.10
2017-08-03T13:10:34.912Z,29.10
2017-08-03T13:13:03.184Z,29.10
2017-08-03T13:15:31.496Z,29.10
2017-08-03T13:17:59.788Z,29.10
2017-08-03T13:20:28.036Z,29.10
2017-08-03T13:22:56.307Z,29.10
2017-08-03T13:25:24.556Z,29.10
2017-08-03T13:27:52.798Z,29.10
2017-08-03T13:30:21.072Z,29.10
2017-08-03T13:32:49.325Z,29.10
2017-08-03T13:35:17.622Z,29.10
2017-08-03T13:37:45.889Z,29.10
2017-08-03T13:40:14.179Z,29.10
2017-08-03T13:42:43.261Z,29.20
2017-08-03T13:45:12.365Z,29.20
2017-08-03T13:47:40.618Z,29.10
2017-08-03T13:50:09.687Z,29.20
2017-08-03T13:52:38.760Z,29.20
2017-08-03T13:55:07.073Z,29.20
2017-08-03T13:57:35.370Z,29.20
2017-08-03T14:00:04.456Z,29.20
2017-08-03T14:02:32.829Z,29.20
2017-08-03T14:05:01.095Z,29.20
2017-08-03T14:07:29.398Z,29.20
2017-08-03T14:09:57.638Z,29.20
2017-08-03T14:12:25.913Z,29.20
2017-08-03T14:14:54.172Z,29.20
2017-08-03T14:17:22.437Z,29.20
2017-08-03T14:19:50.730Z,29.20
2017-08-03T14:22:19.765Z,29.20
2017-08-03T14:24:48.058Z,29.30
2017-08-03T14:27:16.308Z,29.30
2017-08-03T14:29:44.629Z,29.30
2017-08-03T14:32:12.881Z,29.30
2017-08-03T14:34:41.162Z,29.30
2017-08-03T14:37:09.471Z,29.30
2017-08-03T14:39:38.488Z,29.30
2017-08-03T14:42:06.775Z,29.30
2017-08-03T14:44:35.036Z,29.30
2017-08-03T14:47:03.289Z,29.30
2017-08-03T14:49:31.541Z,29.30
2017-08-03T14:51:59.829Z,29.30
2017-08-03T14:54:28.069Z,29.30
2017-08-03T14:56:56.331Z,29.30
2017-08-03T14:59:24.592Z,29.30
2017-08-03T15:01:52.883Z,29.30
2017-08-03T15:04:21.888Z,29.30
2017-08-03T15:06:50.174Z,29.30
2017-08-03T15:09:18.427Z,29.30
2017-08-03T15:11:46.724Z,29.30
2017-08-03T15:14:15.013Z,29.30
2017-08-03T15:16:43.297Z,29.20
2017-08-03T15:19:11.593Z,29.20
2017-08-03T15:21:39.868Z,29.20
2017-08-03T15:24:08.154Z,29.20
2017-08-03T15:26:36.404Z,29.20
2017-08-03T15:29:05.472Z,29.20
2017-08-03T15:31:34.509Z,29.20
2017-08-03T15:34:02.753Z,29.20
2017-08-03T15:36:31.028Z,29.20
2017-08-03T15:38:59.311Z,29.20
2017-08-03T15:41:27.608Z,29.20
2017-08-03T15:43:55.901Z,29.10
2017-08-03T15:46:24.163Z,29.10
2017-08-03T15:48:52.405Z,29.00
2017-08-03T15:51:20.682Z,29.00
2017-08-03T15:53:48.928Z,29.00
2017-08-03T15:56:17.419Z,28.90
2017-08-03T15:58:45.752Z,28.90
2017-08-03T16:01:14.018Z,28.90
2017-08-03T16:03:42.296Z,28.90
2017-08-03T16:06:10.594Z,28.90
2017-08-03T16:08:39.604Z,28.90
2017-08-03T16:11:07.883Z,28.90
2017-08-03T16:13:36.146Z,28.90
2017-08-03T16:16:05.199Z,28.90
2017-08-03T16:18:33.491Z,28.90
2017-08-03T16:21:01.805Z,28.90
2017-08-03T16:23:30.823Z,28.90
2017-08-03T16:25:59.073Z,28.90
2017-08-03T16:28:27.377Z,28.90
2017-08-03T16:30:55.636Z,28.90
2017-08-03T16:33:23.877Z,28.90
2017-08-03T16:35:52.183Z,28.90
2017-08-03T16:38:21.246Z,28.90
2017-08-03T16:40:50.302Z,28.90
2017-08-03T16:43:18.606Z,28.90
2017-08-03T16:45:46.891Z,28.90
2017-08-03T16:48:15.137Z,28.90
2017-08-03T16:50:43.221Z,28.90
2017-08-03T16:53:11.579Z,28.90
2017-08-03T16:55:39.863Z,28.90
2017-08-03T16:58:08.167Z,28.90
2017-08-03T17:00:36.466Z,28.90
2017-08-03T17:03:04.719Z,28.90
2017-08-03T17:05:32.982Z,28.90
2017-08-03T17:08:01.259Z,28.90
2017-08-03T17:10:29.509Z,28.90
2017-08-03T17:12:57.807Z,29.00
2017-08-03T17:15:26.824Z,29.00
2017-08-03T17:17:55.076Z,28.90
2017-08-03T17:20:23.370Z,28.90
2017-08-03T17:22:51.655Z,29.00
2017-08-03T17:25:20.707Z,29.00
2017-08-03T17:27:49.016Z,28.90
2017-08-03T17:30:17.281Z,29.00
2017-08-03T17:32:45.537Z,29.00
2017-08-03T17:35:13.852Z,29.00
2017-08-03T17:37:42.109Z,29.00
2017-08-03T17:40:10.360Z,29.00
2017-08-03T17:42:38.628Z,29.00
2017-08-03T17:45:06.910Z,29.00
2017-08-03T17:47:35.964Z,29.00
2017-08-03T17:50:04.266Z,29.00
2017-08-03T17:52:33.305Z,29.00
2017-08-03T17:55:01.586Z,29.00
2017-08-03T17:57:30.628Z,29.10
2017-08-03T17:59:58.903Z,29.00
2017-08-03T18:02:27.187Z,29.10
2017-08-03T18:04:55.496Z,29.10
2017-08-03T18:07:23.745Z,29.20
2017-08-03T18:09:51.994Z,29.20
2017-08-03T18:12:20.268Z,29.20
2017-08-03T18:14:48.546Z,29.00
2017-08-03T18:17:16.792Z,28.70
2017-08-03T18:19:45.061Z,28.40
2017-08-03T18:22:13.332Z,28.20
2017-08-03T18:24:41.602Z,27.90
2017-08-03T18:27:09.872Z,27.80
2017-08-03T18:29:38.155Z,27.60
2017-08-03T18:32:07.206Z,27.60
2017-08-03T18:34:35.476Z,27.60
2017-08-03T18:37:03.749Z,27.80
2017-08-03T18:39:32.826Z,28.10
2017-08-03T18:42:01.860Z,28.30
2017-08-03T18:44:30.101Z,28.20
2017-08-03T18:46:58.344Z,28.40
2017-08-03T18:49:26.601Z,28.50
2017-08-03T18:51:54.877Z,28.60
2017-08-03T18:54:23.149Z,28.70
2017-08-03T18:56:51.458Z,28.70
2017-08-03T18:59:20.490Z,28.80
2017-08-03T19:01:48.741Z,28.80
2017-08-03T19:04:17.011Z,28.90
2017-08-03T19:06:45.268Z,28.90
2017-08-03T19:09:13.547Z,28.90
2017-08-03T19:11:41.863Z,28.90
2017-08-03T19:14:10.159Z,29.00
2017-08-03T19:16:38.442Z,29.00
2017-08-03T19:19:06.778Z,29.00
2017-08-03T19:21:35.024Z,29.00
2017-08-03T19:24:03.313Z,29.00
2017-08-03T19:26:31.601Z,29.00
2017-08-03T19:29:00.613Z,29.00
2017-08-03T19:31:28.886Z,29.00
2017-08-03T19:33:57.157Z,29.00
2017-08-03T19:36:25.450Z,29.10
2017-08-03T19:38:54.505Z,29.10
2017-08-03T19:41:22.816Z,29.10
2017-08-03T19:43:51.684Z,29.10
2017-08-03T19:46:20.692Z,29.20
2017-08-03T19:48:49.326Z,29.10
2017-08-03T19:51:18.337Z,29.20
2017-08-03T19:53:46.619Z,29.20
2017-08-03T19:56:14.888Z,29.20
2017-08-03T19:58:43.173Z,29.20
2017-08-03T20:01:12.227Z,29.20
2017-08-03T20:03:40.496Z,29.20
2017-08-03T20:06:08.267Z,29.20
2017-08-03T20:08:39.719Z,29.20
2017-08-03T20:11:15.417Z,29.20
2017-08-03T20:13:43.743Z,29.20
2017-08-03T20:16:11.838Z,29.30
2017-08-03T20:18:39.940Z,29.20
2017-08-03T20:21:08.029Z,29.20
2017-08-03T20:23:36.287Z,29.20
2017-08-03T20:26:04.552Z,29.30
2017-08-03T20:28:32.796Z,29.30
2017-08-03T20:31:01.091Z,29.20
2017-08-03T20:33:30.150Z,28.30
2017-08-03T20:35:58.443Z,28.20
2017-08-03T20:38:27.521Z,27.60
2017-08-03T20:40:56.565Z,27.30
2017-08-03T20:43:24.848Z,27.30
2017-08-03T20:45:53.861Z,27.00
2017-08-03T20:48:22.159Z,26.90
2017-08-03T20:50:50.400Z,26.80
2017-08-03T20:53:18.659Z,26.70
2017-08-03T20:55:46.964Z,26.70
2017-08-03T20:58:15.989Z,26.50
2017-08-03T21:00:44.273Z,26.50
2017-08-03T21:03:12.588Z,26.30
2017-08-03T21:05:40.849Z,26.30
2017-08-03T21:08:09.126Z,26.10
2017-08-03T21:10:37.435Z,26.00
2017-08-03T21:13:05.685Z,25.80
2017-08-03T21:15:33.939Z,25.60
2017-08-03T21:18:02.217Z,25.50
2017-08-03T21:20:30.474Z,25.30
2017-08-03T21:22:58.726Z,25.20
2017-08-03T21:25:27.025Z,25.10
2017-08-03T21:27:55.305Z,25.00
2017-08-03T21:30:23.590Z,25.00
2017-08-03T21:32:51.871Z,24.90
2017-08-03T21:35:20.120Z,24.80
2017-08-03T21:37:48.894Z,24.80
2017-08-03T21:40:17.229Z,24.60
2017-08-03T21:42:45.492Z,24.60
2017-08-03T21:45:13.811Z,24.50
2017-08-03T21:47:42.115Z,24.40
2017-08-03T21:50:10.362Z,24.40
2017-08-03T21:52:38.647Z,24.40
2017-08-03T21:55:06.974Z,24.30
2017-08-03T21:57:35.258Z,24.30
2017-08-03T22:00:03.505Z,24.30
2017-08-03T22:02:31.760Z,24.20
2017-08-03T22:05:00.009Z,24.10
2017-08-03T22:07:28.290Z,24.10
2017-08-03T22:09:56.587Z,23.90
2017-08-03T22:12:25.605Z,23.80
2017-08-03T22:14:53.852Z,23.70
2017-08-03T22:17:22.129Z,23.60
2017-08-03T22:19:50.409Z,23.60
2017-08-03T22:22:18.703Z,23.60
2017-08-03T22:24:47.735Z,23.60
2017-08-03T22:27:16.018Z,23.60
2017-08-03T22:29:44.307Z,23.60
2017-08-03T22:32:13.340Z,23.50
2017-08-03T22:34:41.614Z,23.50
2017-08-03T22:37:09.870Z,23.80
2017-08-03T22:39:38.184Z,24.20
2017-08-03T22:42:06.466Z,24.60
2017-08-03T22:44:34.746Z,24.90
2017-08-03T22:47:03.012Z,25.20
2017-08-03T22:49:31.285Z,25.40
2017-08-03T22:51:59.571Z,25.70
2017-08-03T22:54:28.639Z,26.00
2017-08-03T22:56:57.718Z,26.10
2017-08-03T22:59:26.774Z,26.20
2017-08-03T23:01:55.060Z,26.20
2017-08-03T23:04:24.098Z,25.70
2017-08-03T23:06:52.391Z,25.70
2017-08-03T23:09:21.454Z,24.80
2017-08-03T23:11:49.734Z,24.80
2017-08-03T23:14:18.749Z,24.20
2017-08-03T23:16:47.093Z,24.20
2017-08-03T23:19:15.358Z,24.00
2017-08-03T23:21:43.644Z,23.90
2017-08-03T23:24:11.958Z,24.20
2017-08-03T23:26:40.964Z,24.90
2017-08-03T23:29:09.350Z,24.90
2017-08-03T23:31:37.662Z,25.20
2017-08-03T23:34:06.688Z,25.70
2017-08-03T23:36:34.942Z,25.70
2017-08-03T23:39:02.982Z,25.90
2017-08-03T23:41:31.271Z,25.70
2017-08-03T23:43:59.562Z,25.20
2017-08-03T23:46:28.638Z,24.50
2017-08-03T23:48:57.653Z,24.20
2017-08-03T23:51:25.901Z,24.20
2017-08-03T23:53:54.195Z,24.40
2017-08-03T23:56:22.484Z,24.60
2017-08-03T23:58:50.732Z,25.00
